Time;durP1;ratioP1;P1;durP2;ratioP2;P2;SDS_P1;SDS_P2;PMS_P1;PMS_P2;Temp;Humidity;BMP_temperature;BMP_pressure;BME280_temperature;BME280_humidity;BME280_pressure;Samples;Min_cycle;Max_cycle;Signal;HPM_P1;HPM_P2
2021/03/16 00:00:24;;;;;;;10.30;4.32;;;7.00;99.90;;;;;;4898114;29;20040;-62
2021/03/16 00:02:50;;;;;;;12.15;3.85;;;7.10;99.90;;;;;;4898125;29;20047;-62
2021/03/16 00:05:16;;;;;;;9.88;3.05;;;7.20;99.90;;;;;;4879894;29;20440;-65
2021/03/16 00:07:41;;;;;;;25.65;4.93;;;7.20;99.90;;;;;;4895987;29;20040;-63
2021/03/16 00:10:08;;;;;;;12.68;2.53;;;7.20;99.90;;;;;;4878293;29;20401;-63
2021/03/16 00:12:33;;;;;;;13.15;4.70;;;7.20;99.90;;;;;;4896523;29;20028;-63
2021/03/16 00:14:59;;;;;;;11.70;2.88;;;7.20;99.90;;;;;;4896911;29;20406;-62
2021/03/16 00:17:25;;;;;;;10.13;2.70;;;7.30;99.90;;;;;;4898123;29;20031;-62
2021/03/16 00:19:50;;;;;;;8.35;3.28;;;7.20;99.90;;;;;;4880845;29;20457;-62
2021/03/16 00:22:16;;;;;;;7.63;2.97;;;7.30;99.90;;;;;;4897376;29;20100;-61
2021/03/16 00:24:42;;;;;;;9.07;2.70;;;7.30;99.90;;;;;;4897496;29;20037;-61
2021/03/16 00:27:07;;;;;;;9.05;3.13;;;7.30;99.90;;;;;;4896693;29;20036;-62
2021/03/16 00:29:33;;;;;;;9.98;3.00;;;7.20;99.90;;;;;;4897222;29;20032;-62
2021/03/16 00:31:59;;;;;;;11.00;3.05;;;7.20;99.90;;;;;;4897056;29;20024;-63
2021/03/16 00:34:24;;;;;;;10.50;3.90;;;7.20;99.90;;;;;;4880502;29;20036;-61
2021/03/16 00:36:50;;;;;;;4.03;2.38;;;7.10;99.90;;;;;;4880378;29;20128;-61
2021/03/16 00:39:16;;;;;;;8.43;2.88;;;7.00;99.90;;;;;;4896476;29;20264;-62
2021/03/16 00:41:41;;;;;;;11.02;3.22;;;7.20;99.90;;;;;;4897016;29;20119;-62
2021/03/16 00:44:07;;;;;;;7.43;3.83;;;7.20;99.90;;;;;;4879571;29;20046;-62
2021/03/16 00:46:34;;;;;;;8.65;4.22;;;7.20;99.90;;;;;;4879841;29;20037;-61
2021/03/16 00:49:01;;;;;;;6.72;2.78;;;7.10;99.90;;;;;;4896443;29;20029;-61
2021/03/16 00:51:28;;;;;;;6.68;3.40;;;7.10;99.90;;;;;;4880221;29;20033;-62
2021/03/16 00:53:53;;;;;;;11.15;3.00;;;7.00;99.90;;;;;;4897020;29;20496;-61
2021/03/16 00:56:19;;;;;;;8.57;2.70;;;7.10;99.90;;;;;;4896406;29;20033;-62
2021/03/16 00:58:44;;;;;;;5.80;2.40;;;7.00;99.90;;;;;;4897042;29;20077;-61
2021/03/16 01:01:10;;;;;;;9.00;3.83;;;7.10;99.90;;;;;;4879383;29;20028;-62
2021/03/16 01:03:36;;;;;;;10.20;3.13;;;7.20;99.90;;;;;;4895865;29;20039;-62
2021/03/16 01:06:03;;;;;;;8.23;2.45;;;7.10;99.90;;;;;;4879301;29;20028;-62
2021/03/16 01:08:29;;;;;;;7.25;2.75;;;7.10;99.90;;;;;;4896334;29;20028;-63
2021/03/16 01:10:55;;;;;;;10.20;3.50;;;7.10;99.90;;;;;;4879863;29;20033;-62
2021/03/16 01:13:22;;;;;;;15.15;3.05;;;7.00;99.90;;;;;;4895970;29;20036;-62
2021/03/16 01:15:48;;;;;;;7.57;2.30;;;7.10;99.90;;;;;;4896718;29;20033;-62
2021/03/16 01:18:14;;;;;;;12.73;3.53;;;7.10;99.90;;;;;;4878879;29;20111;-62
2021/03/16 01:20:40;;;;;;;10.32;3.35;;;7.00;99.90;;;;;;4879641;29;20032;-62
2021/03/16 01:23:06;;;;;;;11.13;2.47;;;7.00;99.90;;;;;;4895929;29;20471;-63
2021/03/16 01:25:31;;;;;;;14.52;3.22;;;7.10;99.90;;;;;;4896537;29;20157;-62
2021/03/16 01:27:57;;;;;;;8.07;2.85;;;7.00;99.90;;;;;;4879445;29;20036;-62
2021/03/16 01:30:24;;;;;;;14.48;3.78;;;7.00;99.90;;;;;;4895991;29;20040;-62
2021/03/16 01:32:50;;;;;;;8.43;3.08;;;7.00;99.90;;;;;;4879265;29;20170;-62
2021/03/16 01:35:16;;;;;;;6.05;2.25;;;7.00;99.90;;;;;;4878631;29;20474;-63
2021/03/16 01:37:42;;;;;;;8.57;2.45;;;7.00;99.90;;;;;;4896063;29;20056;-61
2021/03/16 01:40:13;;;;;;;10.07;2.75;;;7.00;99.90;;;;;;4895355;29;20534;-62
2021/03/16 01:42:39;;;;;;;13.63;3.00;;;6.90;99.90;;;;;;4896061;29;20047;-61
2021/03/16 01:45:10;;;;;;;8.52;2.25;;;6.90;99.90;;;;;;4878695;29;20036;-61
2021/03/16 01:47:38;;;;;;;13.23;3.00;;;6.90;99.90;;;;;;4896143;29;20043;-63
2021/03/16 01:50:05;;;;;;;6.72;2.25;;;6.90;99.90;;;;;;4878319;29;20277;-61
2021/03/16 01:52:31;;;;;;;4.22;2.15;;;7.00;99.90;;;;;;4879161;29;20111;-62
2021/03/16 01:54:59;;;;;;;7.82;2.20;;;7.10;99.90;;;;;;4879143;29;20063;-61
2021/03/16 01:57:27;;;;;;;7.57;2.58;;;7.00;99.90;;;;;;4878440;29;20039;-62
2021/03/16 01:59:52;;;;;;;8.95;2.15;;;7.00;99.90;;;;;;4895591;29;20453;-62
2021/03/16 02:02:18;;;;;;;11.68;3.30;;;7.00;99.90;;;;;;4878466;29;20123;-61
2021/03/16 02:04:44;;;;;;;12.02;2.92;;;7.00;99.90;;;;;;4878847;29;20062;-61
2021/03/16 02:07:18;;;;;;;9.82;2.75;;;7.00;99.90;;;;;;4895241;29;20052;-61
2021/03/16 02:10:07;;;;;;;7.80;2.10;;;7.00;99.90;;;;;;4878957;29;20084;-62
2021/03/16 02:13:01;;;;;;;10.45;2.38;;;7.10;99.90;;;;;;4878975;29;20037;-62
2021/03/16 02:15:33;;;;;;;11.32;3.72;;;7.00;99.90;;;;;;4895117;29;20040;-62
2021/03/16 02:18:04;;;;;;;9.98;3.20;;;6.90;99.90;;;;;;4879133;29;20093;-61
2021/03/16 02:20:55;;;;;;;9.85;2.67;;;7.00;99.90;;;;;;4865109;29;20111;-62
2021/03/16 02:23:39;;;;;;;10.50;2.90;;;7.00;99.90;;;;;;4876406;29;20086;-62
2021/03/16 02:26:15;;;;;;;9.98;2.83;;;7.10;99.90;;;;;;4874956;29;20037;-63
2021/03/16 02:28:58;;;;;;;13.38;2.38;;;7.00;99.90;;;;;;4876943;29;20179;-61
2021/03/16 02:31:26;;;;;;;11.38;3.47;;;6.90;99.90;;;;;;4875191;29;20118;-61
2021/03/16 02:33:52;;;;;;;10.00;2.35;;;6.90;99.90;;;;;;4875901;29;20041;-62
2021/03/16 02:36:19;;;;;;;7.38;2.28;;;7.00;99.90;;;;;;4876499;29;20074;-62
2021/03/16 02:38:51;;;;;;;12.98;2.78;;;7.10;99.90;;;;;;4876583;29;20048;-62
2021/03/16 02:41:18;;;;;;;8.88;2.42;;;7.00;99.90;;;;;;4859195;29;20029;-62
2021/03/16 02:43:45;;;;;;;9.48;2.30;;;7.10;99.90;;;;;;4860107;29;20136;-61
2021/03/16 02:46:12;;;;;;;8.98;2.72;;;7.10;99.90;;;;;;4875991;29;20372;-63
2021/03/16 02:48:40;;;;;;;8.13;2.13;;;7.00;99.90;;;;;;4875460;29;20030;-62
2021/03/16 02:51:06;;;;;;;4.97;2.00;;;7.00;99.90;;;;;;4859371;29;20139;-63
2021/03/16 02:53:36;;;;;;;6.90;2.50;;;7.00;99.90;;;;;;4877201;29;20037;-62
2021/03/16 02:56:03;;;;;;;13.05;2.33;;;7.00;99.90;;;;;;4876827;29;20491;-61
2021/03/16 02:58:32;;;;;;;12.27;3.08;;;6.90;99.90;;;;;;4875843;29;20527;-62
2021/03/16 03:00:59;;;;;;;9.05;2.75;;;7.00;99.90;;;;;;4876833;29;20115;-61
2021/03/16 03:03:25;;;;;;;7.28;2.30;;;7.10;99.90;;;;;;4875978;29;20037;-62
2021/03/16 03:05:52;;;;;;;6.63;2.35;;;7.10;99.90;;;;;;4875199;29;20036;-63
2021/03/16 03:08:22;;;;;;;12.00;3.25;;;7.00;99.90;;;;;;4875877;29;20224;-65
2021/03/16 03:10:47;;;;;;;8.02;2.28;;;7.00;99.90;;;;;;4877048;29;20140;-61
2021/03/16 03:13:13;;;;;;;8.45;2.75;;;6.90;99.90;;;;;;4859434;29;20036;-62
2021/03/16 03:15:39;;;;;;;9.15;1.60;;;6.80;99.90;;;;;;4876757;29;20077;-62
2021/03/16 03:18:05;;;;;;;11.23;2.03;;;6.90;99.90;;;;;;4875400;29;20054;-61
2021/03/16 03:20:34;;;;;;;9.57;2.75;;;6.90;99.90;;;;;;4874726;29;20337;-62
2021/03/16 03:23:11;;;;;;;10.85;2.15;;;6.80;99.90;;;;;;4859720;29;20060;-62
2021/03/16 03:25:43;;;;;;;14.25;2.67;;;6.80;99.90;;;;;;4859953;29;20475;-61
2021/03/16 03:28:20;;;;;;;7.35;2.25;;;6.80;99.90;;;;;;4879425;29;20041;-62
2021/03/16 03:30:47;;;;;;;7.45;2.28;;;6.80;99.90;;;;;;4880129;29;20416;-61
2021/03/16 03:33:14;;;;;;;7.90;2.83;;;6.80;99.90;;;;;;4879350;29;20089;-62
2021/03/16 03:35:41;;;;;;;6.45;2.00;;;6.80;99.90;;;;;;4880041;29;20036;-62
2021/03/16 03:38:09;;;;;;;9.52;2.00;;;6.70;99.90;;;;;;4862791;29;20089;-65
2021/03/16 03:40:36;;;;;;;7.60;2.97;;;6.80;99.90;;;;;;4880148;29;20182;-62
2021/03/16 03:43:05;;;;;;;9.20;2.50;;;6.90;99.90;;;;;;4878316;29;20029;-62
2021/03/16 03:45:33;;;;;;;8.27;2.20;;;6.90;99.90;;;;;;4879368;29;20485;-61
2021/03/16 03:48:02;;;;;;;12.82;2.53;;;6.90;99.90;;;;;;4879743;29;20043;-62
2021/03/16 03:50:28;;;;;;;11.48;2.20;;;6.90;99.90;;;;;;4878908;29;20454;-61
2021/03/16 03:52:55;;;;;;;10.15;2.30;;;6.90;99.90;;;;;;4879574;29;20037;-62
2021/03/16 03:55:22;;;;;;;10.57;2.13;;;6.90;99.90;;;;;;4877611;29;20417;-62
2021/03/16 03:57:50;;;;;;;9.45;2.20;;;6.90;99.90;;;;;;4879745;29;20162;-62
2021/03/16 04:00:17;;;;;;;9.82;2.35;;;6.80;99.90;;;;;;4862257;29;20072;-61
2021/03/16 04:02:43;;;;;;;10.75;2.95;;;6.80;99.90;;;;;;4862674;29;20029;-61
2021/03/16 04:05:12;;;;;;;11.77;2.72;;;6.80;99.90;;;;;;4877814;29;20093;-68
2021/03/16 04:07:37;;;;;;;9.48;2.92;;;6.80;99.90;;;;;;4879509;29;20041;-62
2021/03/16 04:10:12;;;;;;;11.63;3.25;;;6.80;99.90;;;;;;4879610;29;20052;-62
2021/03/16 04:12:38;;;;;;;9.50;2.38;;;6.80;99.90;;;;;;4879049;29;20036;-62
2021/03/16 04:15:10;;;;;;;10.30;2.90;;;6.70;99.90;;;;;;4862515;29;20484;-62
2021/03/16 04:17:36;;;;;;;;;;;6.80;99.90;;;;;;4863087;29;20057;-63
2021/03/16 04:20:05;;;;;;;11.30;2.58;;;6.60;99.90;;;;;;4879383;29;20267;-62
2021/03/16 04:22:31;;;;;;;8.85;2.72;;;6.70;99.90;;;;;;4877158;29;20117;-62
2021/03/16 04:24:56;;;;;;;9.32;4.15;;;6.80;99.90;;;;;;4882993;29;20478;-61
2021/03/16 04:27:23;;;;;;;11.07;2.95;;;6.80;99.90;;;;;;4896773;29;20474;-62
2021/03/16 04:29:49;;;;;;;8.50;2.60;;;6.80;99.90;;;;;;4897210;29;20076;-62
2021/03/16 04:32:15;;;;;;;10.77;3.17;;;6.70;99.90;;;;;;4896709;29;20041;-62
2021/03/16 04:34:40;;;;;;;10.18;3.10;;;6.70;99.90;;;;;;4897572;29;20187;-62
2021/03/16 04:37:06;;;;;;;12.35;4.03;;;6.70;99.90;;;;;;4897756;29;20424;-62
2021/03/16 04:39:31;;;;;;;9.27;2.90;;;6.70;99.90;;;;;;4895793;29;20445;-62
2021/03/16 04:41:57;;;;;;;11.23;3.28;;;6.60;99.90;;;;;;4897869;29;20035;-62
2021/03/16 04:44:23;;;;;;;8.45;3.35;;;6.60;99.90;;;;;;4896958;29;20064;-62
2021/03/16 04:46:49;;;;;;;13.68;3.70;;;6.70;99.90;;;;;;4895871;29;20032;-61
2021/03/16 04:49:14;;;;;;;10.63;3.30;;;6.70;99.90;;;;;;4895501;29;20040;-61
2021/03/16 04:51:40;;;;;;;10.57;3.67;;;6.60;99.90;;;;;;4896042;29;20504;-61
2021/03/16 04:54:06;;;;;;;11.07;4.15;;;6.60;99.90;;;;;;4897324;29;20095;-61
2021/03/16 04:56:33;;;;;;;14.05;4.13;;;6.60;99.90;;;;;;4896706;29;20059;-62
2021/03/16 04:58:59;;;;;;;8.15;3.22;;;6.70;99.90;;;;;;4895617;29;20029;-62
2021/03/16 05:01:25;;;;;;;13.63;4.40;;;6.60;99.90;;;;;;4895344;29;20067;-62
2021/03/16 05:03:50;;;;;;;8.40;3.80;;;6.60;99.90;;;;;;4895582;29;20177;-62
2021/03/16 05:06:16;;;;;;;10.77;3.53;;;6.60;99.90;;;;;;4896513;29;20107;-62
2021/03/16 05:08:42;;;;;;;10.95;3.35;;;6.60;99.90;;;;;;4895540;29;20076;-61
2021/03/16 05:11:08;;;;;;;17.38;5.65;;;6.60;99.90;;;;;;4895841;29;20394;-62
2021/03/16 05:13:33;;;;;;;10.45;3.53;;;6.40;99.90;;;;;;4895100;29;20037;-62
2021/03/16 05:16:00;;;;;;;17.67;4.43;;;6.50;99.90;;;;;;4896937;29;20093;-61
2021/03/16 05:18:26;;;;;;;6.93;3.33;;;6.60;99.90;;;;;;4894965;29;20029;-62
2021/03/16 05:20:52;;;;;;;11.55;3.63;;;6.50;99.90;;;;;;4896437;29;20411;-62
2021/03/16 05:23:17;;;;;;;11.18;5.53;;;6.50;99.90;;;;;;4895752;29;20032;-61
2021/03/16 05:25:43;;;;;;;19.02;5.90;;;6.60;99.90;;;;;;4884090;29;20064;-61
2021/03/16 05:28:08;;;;;;;8.30;3.72;;;6.50;99.90;;;;;;4896566;29;20116;-61
2021/03/16 05:30:34;;;;;;;11.60;3.90;;;6.60;99.90;;;;;;4896273;29;20463;-61
2021/03/16 05:33:01;;;;;;;12.63;3.95;;;6.60;99.90;;;;;;4879768;29;20032;-63
2021/03/16 05:35:28;;;;;;;11.52;3.80;;;6.60;99.90;;;;;;4879130;29;20024;-62
2021/03/16 05:37:54;;;;;;;12.73;3.83;;;6.50;99.90;;;;;;4879604;29;20060;-62
2021/03/16 05:40:20;;;;;;;18.10;5.93;;;6.60;99.90;;;;;;4895950;29;20044;-63
2021/03/16 05:42:46;;;;;;;9.15;4.30;;;6.60;99.90;;;;;;4879543;29;20025;-63
2021/03/16 05:45:12;;;;;;;9.48;4.05;;;6.60;99.90;;;;;;4896447;29;20052;-62
2021/03/16 05:47:40;;;;;;;15.23;4.03;;;6.60;99.90;;;;;;4895916;29;20036;-62
2021/03/16 05:50:07;;;;;;;12.85;3.95;;;6.60;99.90;;;;;;4896055;29;20028;-63
2021/03/16 05:52:34;;;;;;;13.90;4.35;;;6.60;99.90;;;;;;4878872;29;20040;-62
2021/03/16 05:55:02;;;;;;;10.40;3.47;;;6.60;99.90;;;;;;4879384;29;20483;-61
2021/03/16 05:57:28;;;;;;;9.93;3.42;;;6.60;99.90;;;;;;4878851;29;20028;-62
2021/03/16 05:59:54;;;;;;;8.57;3.17;;;6.60;99.90;;;;;;4896425;29;20374;-63
2021/03/16 06:02:20;;;;;;;12.50;4.50;;;6.60;99.90;;;;;;4878289;29;20471;-63
2021/03/16 06:04:46;;;;;;;12.00;3.58;;;6.60;99.90;;;;;;4895151;29;20387;-64
2021/03/16 06:07:16;;;;;;;7.53;3.88;;;6.50;99.90;;;;;;4896604;29;20431;-62
2021/03/16 06:09:43;;;;;;;9.75;2.85;;;6.70;99.90;;;;;;4878879;29;20060;-63
2021/03/16 06:12:10;;;;;;;7.43;3.17;;;6.70;99.90;;;;;;4895923;29;20029;-63
2021/03/16 06:14:37;;;;;;;12.77;3.30;;;6.70;99.90;;;;;;4894905;29;20490;-63
2021/03/16 06:17:03;;;;;;;10.75;2.58;;;6.70;99.90;;;;;;4879015;29;20032;-63
2021/03/16 06:19:34;;;;;;;9.60;2.78;;;6.70;99.90;;;;;;4878498;29;20029;-63
2021/03/16 06:22:05;;;;;;;13.90;2.70;;;6.70;99.90;;;;;;4878631;29;20041;-62
2021/03/16 06:24:31;;;;;;;16.48;2.83;;;6.70;99.90;;;;;;4897641;29;20051;-63
2021/03/16 06:26:58;;;;;;;20.20;4.80;;;6.80;99.90;;;;;;4863060;29;20033;-63
2021/03/16 06:29:24;;;;;;;14.27;3.58;;;6.70;99.90;;;;;;4894363;29;20037;-63
2021/03/16 06:31:51;;;;;;;11.15;3.40;;;6.70;99.90;;;;;;4878681;29;20550;-63
2021/03/16 06:34:25;;;;;;;10.05;2.78;;;6.80;99.90;;;;;;4878739;29;20432;-62
2021/03/16 06:37:00;;;;;;;6.30;2.00;;;6.80;99.90;;;;;;4878386;29;20052;-62
2021/03/16 06:39:27;;;;;;;12.10;2.53;;;6.90;99.90;;;;;;4877303;29;20060;-63
2021/03/16 06:41:54;;;;;;;9.63;3.00;;;7.00;99.90;;;;;;4878302;29;20029;-63
2021/03/16 06:44:21;;;;;;;11.20;2.92;;;7.00;99.90;;;;;;4878018;29;20394;-63
2021/03/16 06:46:59;;;;;;;10.82;2.53;;;7.00;99.90;;;;;;4895497;29;20522;-63
2021/03/16 06:49:26;;;;;;;29.92;3.45;;;7.00;99.90;;;;;;4894624;29;20029;-62
2021/03/16 06:51:56;;;;;;;12.00;3.10;;;7.20;99.90;;;;;;4895169;29;20112;-63
2021/03/16 06:54:25;;;;;;;12.50;3.05;;;7.20;99.90;;;;;;4877924;29;20078;-64
2021/03/16 06:56:56;;;;;;;10.35;3.00;;;7.20;99.90;;;;;;4895568;29;20052;-63
2021/03/16 06:59:31;;;;;;;7.47;2.67;;;7.20;99.90;;;;;;4878005;29;20036;-64
2021/03/16 07:01:57;;;;;;;10.68;2.83;;;7.30;99.90;;;;;;4880430;29;20444;-64
2021/03/16 07:04:25;;;;;;;8.77;2.08;;;7.30;99.90;;;;;;4881188;29;20032;-62
2021/03/16 07:06:52;;;;;;;13.07;2.03;;;7.30;99.90;;;;;;4898851;29;20047;-62
2021/03/16 07:09:20;;;;;;;12.13;2.65;;;7.40;99.90;;;;;;4873072;29;20145;-63
2021/03/16 07:11:50;;;;;;;9.18;2.15;;;7.30;99.90;;;;;;4879985;29;20053;-63
2021/03/16 07:14:18;;;;;;;11.40;2.20;;;7.30;99.90;;;;;;4863424;29;20033;-63
2021/03/16 07:16:44;;;;;;;8.15;1.90;;;7.30;99.80;;;;;;4879616;29;20103;-64
2021/03/16 07:19:11;;;;;;;7.07;2.72;;;7.40;99.60;;;;;;4879737;29;20040;-62
2021/03/16 07:21:39;;;;;;;16.92;3.63;;;7.40;99.70;;;;;;4862543;29;20029;-62
2021/03/16 07:24:12;;;;;;;10.88;3.45;;;7.30;99.90;;;;;;4863076;29;20176;-63
2021/03/16 07:26:38;;;;;;;9.75;3.00;;;7.40;99.90;;;;;;4879282;29;20116;-62
2021/03/16 07:29:05;;;;;;;9.65;3.78;;;7.30;99.90;;;;;;4862933;29;20193;-63
2021/03/16 07:31:36;;;;;;;7.95;3.00;;;7.30;99.90;;;;;;4862209;29;20439;-63
2021/03/16 07:34:07;;;;;;;13.40;4.45;;;7.30;99.90;;;;;;4863060;29;20037;-63
2021/03/16 07:36:34;;;;;;;20.93;4.93;;;7.30;99.90;;;;;;4862314;29;20037;-63
2021/03/16 07:39:02;;;;;;;27.85;5.15;;;7.30;99.90;;;;;;4862825;29;20073;-63
2021/03/16 07:41:28;;;;;;;18.48;6.65;;;7.30;99.90;;;;;;4865415;29;20110;-65
2021/03/16 07:44:08;;;;;;;14.50;3.58;;;7.30;99.90;;;;;;4871262;29;20033;-65
2021/03/16 07:46:53;;;;;;;9.60;3.42;;;7.40;99.90;;;;;;4877805;29;20028;-63
2021/03/16 07:49:36;;;;;;;14.00;4.75;;;7.50;99.90;;;;;;4861058;29;20033;-63
2021/03/16 07:52:13;;;;;;;16.75;4.60;;;7.50;99.90;;;;;;4861666;29;20368;-67
2021/03/16 07:54:41;;;;;;;12.32;2.92;;;7.70;99.90;;;;;;4878267;29;20037;-63
2021/03/16 07:57:07;;;;;;;12.82;2.55;;;7.60;99.90;;;;;;4879539;29;20456;-63
2021/03/16 07:59:37;;;;;;;15.32;3.15;;;7.50;99.90;;;;;;4879142;29;20116;-63
2021/03/16 08:02:06;;;;;;;6.95;2.78;;;7.50;99.90;;;;;;4862238;29;20506;-63
2021/03/16 08:04:36;;;;;;;14.48;2.92;;;7.70;99.90;;;;;;4861726;29;20372;-62
2021/03/16 08:07:12;;;;;;;10.68;2.75;;;7.70;99.90;;;;;;4879512;29;20093;-63
2021/03/16 08:10:07;;;;;;;17.95;4.15;;;7.70;99.90;;;;;;4878766;29;20081;-62
2021/03/16 08:12:33;;;;;;;17.30;3.53;;;7.70;99.90;;;;;;4853483;29;20041;-64
2021/03/16 08:15:13;;;;;;;15.02;3.38;;;7.80;99.90;;;;;;4878786;29;20054;-64
2021/03/16 08:17:39;;;;;;;11.80;3.03;;;7.80;99.90;;;;;;4878585;29;20096;-63
2021/03/16 08:20:05;;;;;;;17.83;3.45;;;7.90;99.90;;;;;;4884000;29;20045;-65
2021/03/16 08:22:31;;;;;;;14.05;3.90;;;7.80;99.90;;;;;;4872225;29;20038;-64
2021/03/16 08:25:05;;;;;;;12.25;3.22;;;8.10;99.90;;;;;;4853192;29;20061;-65
2021/03/16 08:27:33;;;;;;;12.73;4.18;;;8.00;99.90;;;;;;4876234;29;20025;-64
2021/03/16 08:29:59;;;;;;;15.98;3.40;;;7.90;99.90;;;;;;4868573;29;20624;-64
2021/03/16 08:32:24;;;;;;;12.13;4.13;;;7.90;99.80;;;;;;4887564;29;20025;-65
2021/03/16 08:34:51;;;;;;;15.57;3.53;;;7.90;99.90;;;;;;4867590;29;20028;-63
2021/03/16 08:37:27;;;;;;;10.52;3.05;;;8.00;99.90;;;;;;4886809;29;20033;-63
2021/03/16 08:39:54;;;;;;;11.43;3.15;;;7.90;99.80;;;;;;4865278;29;20648;-66
2021/03/16 08:42:22;;;;;;;9.40;3.03;;;8.00;99.90;;;;;;4853784;29;20108;-63
2021/03/16 08:44:48;;;;;;;10.55;3.78;;;8.10;99.90;;;;;;4855544;29;20084;-63
2021/03/16 08:47:22;;;;;;;14.93;4.15;;;8.10;99.90;;;;;;4861518;29;20029;-62
2021/03/16 08:49:50;;;;;;;15.38;4.22;;;8.20;99.90;;;;;;4877665;29;20032;-63
2021/03/16 08:52:27;;;;;;;9.88;3.50;;;8.40;99.90;;;;;;4848482;29;20038;-63
2021/03/16 08:54:56;;;;;;;8.25;2.90;;;8.20;99.70;;;;;;4842465;29;20036;-64
2021/03/16 08:57:24;;;;;;;8.82;2.58;;;8.20;99.00;;;;;;4859179;29;20029;-63
2021/03/16 08:59:51;;;;;;;9.88;3.22;;;8.30;98.70;;;;;;4842555;29;20042;-63
2021/03/16 09:02:23;;;;;;;9.68;2.70;;;8.30;98.40;;;;;;4842884;29;20029;-63
2021/03/16 09:04:50;;;;;;;13.95;3.22;;;8.20;98.40;;;;;;4842686;29;20090;-64
2021/03/16 09:07:30;;;;;;;12.90;3.42;;;8.30;98.40;;;;;;4843159;29;20033;-62
2021/03/16 09:10:07;;;;;;;10.90;2.88;;;8.20;98.50;;;;;;4842813;29;20140;-63
2021/03/16 09:12:35;;;;;;;11.77;3.65;;;8.30;98.40;;;;;;4842214;29;20120;-62
2021/03/16 09:15:26;;;;;;;11.63;3.53;;;8.40;98.40;;;;;;4859696;29;20407;-64
2021/03/16 09:18:05;;;;;;;11.77;4.00;;;8.30;99.40;;;;;;4842499;29;20025;-62
2021/03/16 09:20:34;;;;;;;8.95;3.55;;;8.30;99.90;;;;;;4859123;29;20093;-64
2021/03/16 09:23:03;;;;;;;12.73;4.63;;;8.20;99.90;;;;;;4843025;29;20437;-63
2021/03/16 09:25:38;;;;;;;10.05;3.80;;;8.30;99.90;;;;;;4858400;29;20089;-64
2021/03/16 09:28:06;;;;;;;11.48;4.05;;;8.30;99.90;;;;;;4843378;29;20500;-64
2021/03/16 09:30:37;;;;;;;17.50;3.80;;;8.50;99.90;;;;;;4842335;29;20048;-64
2021/03/16 09:33:09;;;;;;;7.28;2.35;;;8.60;99.20;;;;;;4859434;29;20082;-63
2021/03/16 09:35:34;;;;;;;;;;;8.70;98.00;;;;;;4859031;29;20120;-63
2021/03/16 09:38:05;;;;;;;12.00;2.40;;;8.90;97.00;;;;;;4859970;29;20043;-63
2021/03/16 09:40:36;;;;;;;5.93;2.00;;;9.10;95.20;;;;;;4842112;29;20480;-63
2021/03/16 09:43:02;;;;;;;7.00;2.03;;;9.10;94.70;;;;;;4859458;29;20104;-63
2021/03/16 09:45:32;;;;;;;17.48;3.53;;;9.30;94.60;;;;;;4842520;29;20045;-67
2021/03/16 09:47:59;;;;;;;5.82;2.20;;;9.50;93.90;;;;;;4859136;29;20030;-64
2021/03/16 09:50:36;;;;;;;6.72;1.92;;;9.40;93.20;;;;;;4843008;29;20360;-64
2021/03/16 09:53:02;;;;;;;6.07;1.80;;;9.50;92.30;;;;;;4859481;29;20025;-64
2021/03/16 09:55:28;;;;;;;4.60;1.73;;;9.50;91.90;;;;;;4842541;29;20536;-64
2021/03/16 09:57:54;;;;;;;5.20;1.45;;;9.30;92.10;;;;;;4841869;29;20055;-64
2021/03/16 10:00:22;;;;;;;6.47;2.08;;;9.30;91.90;;;;;;4842372;29;20026;-65
2021/03/16 10:02:48;;;;;;;12.00;3.50;;;9.30;91.90;;;;;;4841601;29;20093;-63
2021/03/16 10:05:20;;;;;;;11.02;1.88;;;9.20;91.70;;;;;;4859162;29;20038;-65
2021/03/16 10:07:52;;;;;;;13.32;2.55;;;9.30;91.80;;;;;;4858660;29;20037;-64
2021/03/16 10:10:23;;;;;;;6.55;2.60;;;9.30;91.50;;;;;;4841771;29;20054;-63
2021/03/16 10:13:04;;;;;;;4.10;1.63;;;9.30;92.10;;;;;;4841699;29;20482;-64
2021/03/16 10:15:36;;;;;;;5.80;1.90;;;9.40;91.10;;;;;;4841875;29;20124;-64
2021/03/16 10:18:03;;;;;;;;;;;9.30;92.00;;;;;;4842893;29;20026;-64
2021/03/16 10:20:50;;;;;;;8.45;1.80;;;9.30;91.60;;;;;;4842308;29;19909;-64
2021/03/16 10:23:19;;;;;;;5.22;1.98;;;9.40;90.60;;;;;;4842079;29;20033;-64
2021/03/16 10:25:54;;;;;;;4.32;1.42;;;9.40;88.00;;;;;;4858036;29;20030;-65
2021/03/16 10:28:36;;;;;;;5.18;2.22;;;9.60;88.00;;;;;;4858623;29;20034;-64
2021/03/16 10:31:28;;;;;;;6.53;1.92;;;10.10;89.30;;;;;;4842181;29;20425;-65
2021/03/16 10:33:55;;;;;;;8.98;2.15;;;10.20;88.20;;;;;;4840281;29;20041;-63
2021/03/16 10:36:23;;;;;;;10.15;1.83;;;10.10;83.00;;;;;;4861016;29;20124;-64
2021/03/16 10:38:50;;;;;;;4.15;1.67;;;10.10;83.40;;;;;;4845163;29;20057;-64
2021/03/16 10:41:17;;;;;;;6.57;1.48;;;10.10;82.20;;;;;;4845500;29;20025;-63
2021/03/16 10:43:42;;;;;;;4.22;2.00;;;10.00;82.00;;;;;;4844597;29;20068;-63
2021/03/16 10:46:08;;;;;;;4.93;1.83;;;9.90;83.10;;;;;;4845822;29;20038;-66
2021/03/16 10:48:34;;;;;;;6.60;2.35;;;9.70;83.20;;;;;;4861945;29;20034;-67
2021/03/16 10:51:00;;;;;;;6.95;1.70;;;9.70;83.70;;;;;;4862322;29;20349;-63
2021/03/16 10:53:26;;;;;;;5.90;1.50;;;9.60;84.60;;;;;;4862209;29;20026;-64
2021/03/16 10:55:52;;;;;;;5.15;2.15;;;9.70;84.50;;;;;;4861516;29;20207;-64
2021/03/16 10:58:18;;;;;;;10.88;2.47;;;9.60;84.40;;;;;;4862011;29;20029;-63
2021/03/16 11:00:43;;;;;;;7.90;2.20;;;9.60;83.80;;;;;;4861308;29;20025;-64
2021/03/16 11:03:09;;;;;;;5.05;1.98;;;9.60;84.50;;;;;;4845331;29;20144;-63
2021/03/16 11:05:35;;;;;;;6.22;2.45;;;9.60;85.10;;;;;;4861327;29;20467;-64
2021/03/16 11:08:01;;;;;;;4.80;2.67;;;9.60;87.70;;;;;;4845109;29;20041;-64
2021/03/16 11:10:26;;;;;;;7.68;2.70;;;9.80;87.20;;;;;;4844581;29;20057;-63
2021/03/16 11:12:53;;;;;;;7.50;3.10;;;9.60;88.70;;;;;;4844187;29;20029;-63
2021/03/16 11:15:19;;;;;;;6.97;2.72;;;9.60;88.10;;;;;;4861668;29;20094;-64
2021/03/16 11:17:45;;;;;;;7.18;3.03;;;9.60;89.50;;;;;;4844488;29;20029;-63
2021/03/16 11:20:11;;;;;;;7.47;3.75;;;9.70;90.10;;;;;;4845056;29;20125;-64
2021/03/16 11:22:37;;;;;;;8.02;2.90;;;9.70;90.50;;;;;;4844347;29;20030;-64
2021/03/16 11:25:04;;;;;;;6.90;3.10;;;9.80;90.10;;;;;;4845034;29;20037;-64
2021/03/16 11:27:29;;;;;;;12.13;3.03;;;9.70;90.00;;;;;;4845111;29;20053;-63
2021/03/16 11:29:55;;;;;;;9.60;3.08;;;9.70;89.60;;;;;;4861136;29;20069;-64
2021/03/16 11:32:21;;;;;;;6.05;2.33;;;9.80;88.00;;;;;;4844823;29;20029;-64
2021/03/16 11:34:46;;;;;;;3.70;1.98;;;9.80;87.40;;;;;;4860694;29;20507;-64
2021/03/16 11:37:12;;;;;;;8.50;2.70;;;9.70;88.30;;;;;;4844732;29;20037;-63
2021/03/16 11:39:38;;;;;;;7.43;2.65;;;9.70;86.70;;;;;;4860740;29;20368;-64
2021/03/16 11:42:05;;;;;;;5.30;2.78;;;9.80;85.10;;;;;;4861132;29;20067;-63
2021/03/16 11:44:30;;;;;;;5.82;1.67;;;9.70;86.70;;;;;;4844396;29;20083;-63
2021/03/16 11:46:56;;;;;;;4.43;2.30;;;9.80;84.30;;;;;;4843175;29;20893;-63
2021/03/16 11:49:21;;;;;;;5.72;1.42;;;9.80;84.00;;;;;;4861101;29;20052;-63
2021/03/16 11:51:47;;;;;;;3.40;1.90;;;9.80;84.00;;;;;;4843402;29;20030;-64
2021/03/16 11:54:13;;;;;;;11.70;3.55;;;9.80;83.90;;;;;;4844088;29;20116;-63
2021/03/16 11:56:39;;;;;;;10.80;1.73;;;9.70;82.80;;;;;;4843488;29;20030;-63
2021/03/16 11:59:04;;;;;;;7.40;1.38;;;9.80;84.50;;;;;;4860483;29;20593;-64
2021/03/16 12:01:30;;;;;;;3.00;1.30;;;10.30;85.00;;;;;;4843993;29;20041;-64
2021/03/16 12:03:56;;;;;;;2.92;1.20;;;10.80;86.50;;;;;;4859979;29;20294;-63
2021/03/16 12:06:21;;;;;;;6.65;1.77;;;11.30;82.40;;;;;;4860438;29;20087;-63
2021/03/16 12:08:47;;;;;;;3.60;1.35;;;11.70;81.30;;;;;;4859654;29;20065;-62
2021/03/16 12:11:13;;;;;;;9.05;1.85;;;11.70;73.20;;;;;;4860323;29;20369;-64
2021/03/16 12:13:39;;;;;;;5.88;1.95;;;11.50;75.00;;;;;;4859961;29;20069;-63
2021/03/16 12:16:05;;;;;;;4.32;1.23;;;11.50;71.20;;;;;;4843887;29;20489;-65
2021/03/16 12:18:30;;;;;;;7.57;1.67;;;11.40;71.40;;;;;;4860562;29;20462;-63
2021/03/16 12:20:57;;;;;;;5.75;2.05;;;11.20;71.50;;;;;;4842803;29;20033;-63
2021/03/16 12:23:25;;;;;;;5.90;1.55;;;10.80;73.50;;;;;;4843573;29;20037;-63
2021/03/16 12:25:53;;;;;;;4.45;2.00;;;10.80;76.20;;;;;;4843087;29;20029;-63
2021/03/16 12:28:18;;;;;;;5.63;1.88;;;10.90;77.90;;;;;;4860228;29;20025;-65
2021/03/16 12:30:44;;;;;;;4.72;2.00;;;11.10;78.00;;;;;;4842881;29;20516;-65
2021/03/16 12:33:10;;;;;;;10.90;2.47;;;11.60;78.70;;;;;;4843418;29;20037;-64
2021/03/16 12:35:36;;;;;;;9.48;2.05;;;12.30;78.70;;;;;;4859823;29;20033;-63
2021/03/16 12:38:03;;;;;;;8.93;2.30;;;12.90;74.90;;;;;;4859532;29;20460;-63
2021/03/16 12:40:29;;;;;;;5.25;2.10;;;13.20;73.50;;;;;;4843177;29;20395;-63
2021/03/16 12:42:55;;;;;;;9.95;2.42;;;12.90;72.40;;;;;;4842471;29;20037;-63
2021/03/16 12:45:21;;;;;;;3.55;2.05;;;12.80;71.10;;;;;;4859774;29;20389;-64
2021/03/16 12:47:47;;;;;;;11.88;3.83;;;12.80;70.80;;;;;;4859039;29;20033;-64
2021/03/16 12:50:13;;;;;;;8.23;2.20;;;12.80;72.60;;;;;;4842956;29;20064;-65
2021/03/16 12:52:39;;;;;;;9.60;3.50;;;12.50;70.20;;;;;;4842987;29;20037;-63
2021/03/16 12:55:05;;;;;;;4.53;2.15;;;12.40;69.20;;;;;;4843050;29;20033;-63
2021/03/16 12:57:31;;;;;;;4.25;2.08;;;12.10;67.30;;;;;;4860039;29;20034;-63